Time;durP1;ratioP1;P1;durP2;ratioP2;P2;SDS_P1;SDS_P2;PMS_P1;PMS_P2;Temp;Humidity;BMP_temperature;BMP_pressure;BME280_temperature;BME280_humidity;BME280_pressure;Samples;Min_cycle;Max_cycle;Signal;HPM_P1;HPM_P2
2022/04/02 00:00:52;;;;;;;11.50;7.75;;;;;;;;;;5059602;28;20055;-86
2022/04/02 00:03:19;;;;;;;10.77;7.30;;;;;;;;;;5060949;28;20032;-86
2022/04/02 00:05:45;;;;;;;9.70;7.38;;;;;;;;;;5060536;28;20085;-83
2022/04/02 00:08:10;;;;;;;9.95;6.93;;;;;;;;;;5060366;28;20126;-86
2022/04/02 00:10:37;;;;;;;8.85;6.63;;;;;;;;;;5077387;28;20516;-86
2022/04/02 00:13:03;;;;;;;10.02;6.82;;;;;;;;;;5077299;28;20036;-86
2022/04/02 00:15:30;;;;;;;10.02;7.40;;;;;;;;;;5060351;28;20065;-86
2022/04/02 00:17:57;;;;;;;8.80;6.35;;;;;;;;;;5043951;28;20032;-85
2022/04/02 00:20:22;;;;;;;9.05;6.28;;;;;;;;;;5060433;28;20039;-85
2022/04/02 00:25:34;;;;;;;8.73;6.30;;;;;;;;;;5092987;28;20035;-86
2022/04/02 00:28:00;;;;;;;8.63;6.40;;;;;;;;;;5060156;28;20036;-86
2022/04/02 00:30:27;;;;;;;8.20;5.57;;;;;;;;;;5060104;28;20072;-86
2022/04/02 00:32:53;;;;;;;8.82;6.15;;;;;;;;;;5060119;28;20032;-85
2022/04/02 00:35:20;;;;;;;7.85;5.32;;;;;;;;;;5059833;28;20066;-86
2022/04/02 00:37:45;;;;;;;7.65;5.13;;;;;;;;;;5043285;28;20039;-86
2022/04/02 00:40:11;;;;;;;7.88;5.10;;;;;;;;;;5059774;28;20116;-86
2022/04/02 00:42:37;;;;;;;7.10;4.90;;;;;;;;;;5060206;28;20028;-86
2022/04/02 00:45:04;;;;;;;7.20;5.13;;;;;;;;;;5060114;28;20040;-86
2022/04/02 00:47:30;;;;;;;7.13;4.65;;;;;;;;;;5043608;28;20444;-86
2022/04/02 00:49:57;;;;;;;7.93;5.25;;;;;;;;;;5059696;28;20447;-86
2022/04/02 00:52:27;;;;;;;8.10;4.50;;;;;;;;;;5094767;28;20051;-86
2022/04/02 00:54:54;;;;;;;7.20;4.68;;;;;;;;;;5062421;28;20122;-86
2022/04/02 00:57:22;;;;;;;6.57;5.20;;;;;;;;;;5059968;28;20108;-86
2022/04/02 00:59:48;;;;;;;7.30;4.90;;;;;;;;;;5066718;28;20032;-86
2022/04/02 01:02:15;;;;;;;5.95;4.28;;;;;;;;;;5043048;28;20028;-86
2022/04/02 01:04:41;;;;;;;7.13;4.63;;;;;;;;;;5076344;28;20032;-87
2022/04/02 01:07:07;;;;;;;6.60;5.10;;;;;;;;;;5059299;28;20044;-85
2022/04/02 01:09:33;;;;;;;6.13;4.20;;;;;;;;;;5058010;28;20048;-85
2022/04/02 01:11:59;;;;;;;7.57;4.57;;;;;;;;;;5059681;28;20086;-86
2022/04/02 01:14:25;;;;;;;6.53;3.72;;;;;;;;;;5064992;28;20069;-86
2022/04/02 01:16:52;;;;;;;7.57;4.30;;;;;;;;;;5076235;28;20080;-86
2022/04/02 01:19:17;;;;;;;6.55;4.05;;;;;;;;;;5079503;28;20039;-85
2022/04/02 01:21:47;;;;;;;5.65;3.70;;;;;;;;;;5061899;28;20122;-86
2022/04/02 01:24:14;;;;;;;6.07;4.20;;;;;;;;;;5059237;28;20089;-86
2022/04/02 01:26:40;;;;;;;5.85;3.80;;;;;;;;;;5042465;28;20028;-86
2022/04/02 01:29:06;;;;;;;5.88;3.70;;;;;;;;;;5059866;28;20028;-84
2022/04/02 01:31:32;;;;;;;5.65;3.88;;;;;;;;;;5059537;28;20078;-86
2022/04/02 01:33:59;;;;;;;5.28;3.28;;;;;;;;;;5042758;28;20036;-86
2022/04/02 01:36:25;;;;;;;5.10;3.40;;;;;;;;;;5058356;28;20028;-86
2022/04/02 01:38:51;;;;;;;5.97;3.33;;;;;;;;;;5042136;28;20509;-86
2022/04/02 01:41:18;;;;;;;5.15;3.00;;;;;;;;;;5059131;28;20052;-86
2022/04/02 01:43:44;;;;;;;4.57;2.97;;;;;;;;;;5061167;28;20043;-86
2022/04/02 01:46:09;;;;;;;5.15;3.15;;;;;;;;;;5078904;28;20042;-87
2022/04/02 01:48:35;;;;;;;5.25;3.15;;;;;;;;;;5061136;28;20064;-86
2022/04/02 01:51:00;;;;;;;4.68;2.97;;;;;;;;;;5077890;28;20035;-86
2022/04/02 01:53:27;;;;;;;4.68;2.95;;;;;;;;;;5078268;28;20024;-86
2022/04/02 01:55:52;;;;;;;4.40;3.30;;;;;;;;;;5059962;28;20032;-86
2022/04/02 01:58:18;;;;;;;4.72;3.03;;;;;;;;;;5061629;28;20059;-86
2022/04/02 02:00:45;;;;;;;4.60;2.88;;;;;;;;;;5063811;28;20032;-86
2022/04/02 02:03:13;;;;;;;4.72;2.97;;;;;;;;;;5072192;28;20082;-87
2022/04/02 02:05:39;;;;;;;4.90;2.72;;;;;;;;;;5078201;28;20406;-87
2022/04/02 02:08:05;;;;;;;5.30;3.13;;;;;;;;;;5061832;28;20032;-87
2022/04/02 02:10:31;;;;;;;5.20;2.85;;;;;;;;;;5062123;28;20085;-87
2022/04/02 02:12:58;;;;;;;3.25;2.05;;;;;;;;;;5075221;28;20031;-87
2022/04/02 02:15:26;;;;;;;4.00;2.47;;;;;;;;;;5061958;28;20039;-87
2022/04/02 02:17:53;;;;;;;4.78;2.88;;;;;;;;;;5062167;28;20141;-86
2022/04/02 02:20:20;;;;;;;3.80;2.17;;;;;;;;;;5077720;28;20528;-86
2022/04/02 02:22:46;;;;;;;4.32;2.47;;;;;;;;;;5061646;28;20032;-86
2022/04/02 02:25:16;;;;;;;3.70;2.25;;;;;;;;;;5078062;28;20151;-87
2022/04/02 02:27:45;;;;;;;4.35;2.63;;;;;;;;;;5062040;28;20035;-86
2022/04/02 02:30:13;;;;;;;4.25;2.35;;;;;;;;;;5061825;28;20073;-86
2022/04/02 02:32:39;;;;;;;4.15;2.33;;;;;;;;;;5078557;28;20043;-86
2022/04/02 02:38:04;;;;;;;4.05;2.08;;;;;;;;;;5083749;28;20481;-86
2022/04/02 02:40:30;;;;;;;3.90;2.17;;;;;;;;;;5061636;28;20057;-87
2022/04/02 02:42:55;;;;;;;3.60;2.30;;;;;;;;;;5077943;28;20035;-86
2022/04/02 02:45:22;;;;;;;3.83;2.50;;;;;;;;;;5061350;28;20036;-86
2022/04/02 02:47:48;;;;;;;3.65;2.05;;;;;;;;;;5077844;28;20039;-87
2022/04/02 02:50:13;;;;;;;3.15;1.95;;;;;;;;;;5077408;28;20047;-86
2022/04/02 02:52:40;;;;;;;3.75;2.00;;;;;;;;;;5074267;28;20415;-87
2022/04/02 02:55:06;;;;;;;4.10;2.20;;;;;;;;;;5041038;28;20059;-87
2022/04/02 02:57:42;;;;;;;3.67;2.30;;;;;;;;;;5081706;28;20174;-86
2022/04/02 03:00:08;;;;;;;3.38;1.90;;;;;;;;;;5074485;28;20028;-87
2022/04/02 03:02:37;;;;;;;3.67;1.90;;;;;;;;;;5057796;28;20040;-87
2022/04/02 03:05:10;;;;;;;3.75;2.00;;;;;;;;;;5057820;28;20505;-86
2022/04/02 03:07:38;;;;;;;3.63;2.10;;;;;;;;;;5053225;28;20489;-86
2022/04/02 03:10:05;;;;;;;3.85;2.08;;;;;;;;;;5060461;28;20031;-86
2022/04/02 03:12:30;;;;;;;3.97;2.05;;;;;;;;;;5061008;28;20055;-86
2022/04/02 03:14:56;;;;;;;3.47;1.90;;;;;;;;;;5073829;28;20052;-86
2022/04/02 03:17:24;;;;;;;3.42;1.85;;;;;;;;;;5040809;28;20038;-86
2022/04/02 03:19:52;;;;;;;3.40;1.77;;;;;;;;;;5057292;28;20040;-86
2022/04/02 03:22:20;;;;;;;2.83;1.50;;;;;;;;;;5040959;28;20077;-86
2022/04/02 03:24:47;;;;;;;3.03;1.73;;;;;;;;;;5071678;28;20043;-87
2022/04/02 03:27:13;;;;;;;3.25;1.63;;;;;;;;;;5057668;28;20031;-87
2022/04/02 03:29:42;;;;;;;3.00;1.55;;;;;;;;;;5056626;28;20024;-86
2022/04/02 03:32:08;;;;;;;1.88;1.20;;;;;;;;;;5074420;28;20032;-86
2022/04/02 03:34:34;;;;;;;3.28;1.75;;;;;;;;;;5061281;28;20115;-86
2022/04/02 03:37:00;;;;;;;2.38;1.40;;;;;;;;;;5061702;28;20043;-86
2022/04/02 03:39:26;;;;;;;2.67;1.30;;;;;;;;;;5060917;28;20032;-86
2022/04/02 03:41:54;;;;;;;3.42;1.60;;;;;;;;;;5060884;28;20051;-86
2022/04/02 03:44:19;;;;;;;3.05;1.65;;;;;;;;;;5061389;28;20031;-86
2022/04/02 03:49:29;;;;;;;2.90;1.30;;;;;;;;;;5080409;28;20135;-86
2022/04/02 03:51:55;;;;;;;2.67;1.50;;;;;;;;;;5061100;28;20115;-86
2022/04/02 03:54:25;;;;;;;2.70;1.45;;;;;;;;;;5077768;28;20101;-87
2022/04/02 03:56:51;;;;;;;2.80;1.23;;;;;;;;;;5060783;28;20032;-86
2022/04/02 03:59:16;;;;;;;2.90;1.58;;;;;;;;;;5060759;28;20051;-86
2022/04/02 04:01:42;;;;;;;2.50;1.40;;;;;;;;;;5071611;28;20036;-86
2022/04/02 04:04:07;;;;;;;2.80;1.20;;;;;;;;;;5064054;28;20040;-86
2022/04/02 04:06:33;;;;;;;2.88;1.55;;;;;;;;;;5063931;28;20518;-86
2022/04/02 04:09:01;;;;;;;2.33;1.25;;;;;;;;;;5080359;28;20051;-87
2022/04/02 04:11:27;;;;;;;2.60;1.13;;;;;;;;;;5081593;28;20093;-86
2022/04/02 04:13:54;;;;;;;2.50;1.33;;;;;;;;;;5060332;28;20028;-86
2022/04/02 04:16:20;;;;;;;2.65;1.45;;;;;;;;;;5060123;28;20039;-86
2022/04/02 04:18:46;;;;;;;2.38;1.20;;;;;;;;;;5043998;28;20028;-86
2022/04/02 04:21:14;;;;;;;3.15;1.25;;;;;;;;;;5044253;28;20035;-86
2022/04/02 04:23:42;;;;;;;1.67;0.90;;;;;;;;;;5049226;28;20082;-86
2022/04/02 04:26:08;;;;;;;1.33;0.85;;;;;;;;;;5044015;28;20036;-86
2022/04/02 04:28:34;;;;;;;3.10;1.20;;;;;;;;;;5044036;28;20075;-86
2022/04/02 04:31:01;;;;;;;2.45;1.20;;;;;;;;;;5059984;28;20055;-86
2022/04/02 04:33:26;;;;;;;2.72;1.20;;;;;;;;;;5060308;28;20070;-86
2022/04/02 04:35:53;;;;;;;2.40;1.00;;;;;;;;;;5059921;28;20035;-86
2022/04/02 04:38:18;;;;;;;1.92;1.17;;;;;;;;;;5076764;28;20048;-86
2022/04/02 04:40:44;;;;;;;2.30;1.23;;;;;;;;;;5076752;28;20052;-86
2022/04/02 04:43:11;;;;;;;1.65;0.90;;;;;;;;;;5076605;28;20088;-86
2022/04/02 04:45:37;;;;;;;2.72;1.30;;;;;;;;;;5059701;28;20032;-86
2022/04/02 04:48:03;;;;;;;2.10;1.15;;;;;;;;;;5043589;28;20031;-86
2022/04/02 04:50:28;;;;;;;1.90;0.90;;;;;;;;;;5059753;28;20043;-87
2022/04/02 04:52:54;;;;;;;1.83;0.77;;;;;;;;;;5045530;28;20028;-86
2022/04/02 04:55:20;;;;;;;2.35;1.00;;;;;;;;;;5063275;28;20060;-86
2022/04/02 04:57:47;;;;;;;1.80;0.90;;;;;;;;;;5065627;28;20501;-86
2022/04/02 05:00:15;;;;;;;2.75;1.15;;;;;;;;;;5056961;28;20023;-86
2022/04/02 05:02:44;;;;;;;1.95;0.93;;;;;;;;;;5063386;28;20028;-86
2022/04/02 05:05:12;;;;;;;2.03;0.80;;;;;;;;;;5064012;28;20035;-85
2022/04/02 05:07:42;;;;;;;2.50;1.10;;;;;;;;;;5063131;28;20035;-85
2022/04/02 05:10:08;;;;;;;4.20;2.42;;;;;;;;;;5062052;28;20039;-85
2022/04/02 05:12:35;;;;;;;2.75;1.00;;;;;;;;;;5077806;28;20050;-85
2022/04/02 05:15:01;;;;;;;2.35;1.00;;;;;;;;;;5056927;28;20035;-86
2022/04/02 05:17:27;;;;;;;3.60;1.55;;;;;;;;;;5059524;28;20036;-86
2022/04/02 05:19:54;;;;;;;2.30;1.05;;;;;;;;;;5042497;28;20032;-84
2022/04/02 05:22:21;;;;;;;3.45;0.90;;;;;;;;;;5073800;28;20439;-86
2022/04/02 05:24:47;;;;;;;2.55;1.20;;;;;;;;;;5077074;28;20027;-85
2022/04/02 05:27:13;;;;;;;1.83;0.93;;;;;;;;;;5062469;28;20063;-85
2022/04/02 05:29:38;;;;;;;2.72;1.00;;;;;;;;;;5076496;28;20082;-85
2022/04/02 05:32:04;;;;;;;5.13;1.20;;;;;;;;;;5061935;28;20036;-85
2022/04/02 05:34:31;;;;;;;2.13;1.00;;;;;;;;;;5062119;28;20107;-85
2022/04/02 05:36:57;;;;;;;1.88;0.70;;;;;;;;;;5079087;28;20084;-86
2022/04/02 05:39:25;;;;;;;1.73;0.80;;;;;;;;;;5062224;28;20043;-85
2022/04/02 05:41:53;;;;;;;3.83;1.55;;;;;;;;;;5075362;28;20044;-86
2022/04/02 05:44:18;;;;;;;3.03;0.95;;;;;;;;;;5075852;28;20081;-88
2022/04/02 05:46:44;;;;;;;2.40;0.70;;;;;;;;;;5059499;28;20028;-88
2022/04/02 05:49:09;;;;;;;2.90;0.68;;;;;;;;;;5063271;28;20098;-88
2022/04/02 05:51:36;;;;;;;2.42;0.77;;;;;;;;;;5095961;28;20063;-86
2022/04/02 05:54:02;;;;;;;4.85;0.70;;;;;;;;;;5075424;28;20043;-88
2022/04/02 05:56:29;;;;;;;3.90;0.80;;;;;;;;;;5057931;28;20042;-84
2022/04/02 05:58:55;;;;;;;1.88;0.70;;;;;;;;;;5066076;28;20496;-86
2022/04/02 06:01:21;;;;;;;1.98;0.88;;;;;;;;;;5094163;28;20035;-84
2022/04/02 06:03:47;;;;;;;2.95;0.65;;;;;;;;;;5061590;28;20043;-85
2022/04/02 06:06:13;;;;;;;3.17;0.98;;;;;;;;;;5061921;28;20039;-84
2022/04/02 06:08:39;;;;;;;5.35;1.25;;;;;;;;;;5078213;28;20089;-84
2022/04/02 06:11:06;;;;;;;4.47;0.77;;;;;;;;;;5061340;28;20043;-83
2022/04/02 06:13:32;;;;;;;387.25;247.98;;;;;;;;;;5078025;28;20508;-84
2022/04/02 06:15:57;;;;;;;636.33;445.58;;;;;;;;;;5094811;28;20039;-83
2022/04/02 06:18:23;;;;;;;736.92;524.10;;;;;;;;;;5078066;28;20474;-82
2022/04/02 06:20:48;;;;;;;554.40;396.15;;;;;;;;;;5061644;28;20039;-81
2022/04/02 06:23:14;;;;;;;574.88;402.02;;;;;;;;;;5056379;28;20043;-81
2022/04/02 06:25:40;;;;;;;561.00;396.00;;;;;;;;;;5040781;28;20036;-82
2022/04/02 06:28:06;;;;;;;538.47;382.35;;;;;;;;;;5040888;28;20043;-82
2022/04/02 06:30:31;;;;;;;493.00;344.30;;;;;;;;;;5057639;28;20434;-82
2022/04/02 06:32:57;;;;;;;485.15;334.17;;;;;;;;;;5041157;28;20024;-83
2022/04/02 06:35:23;;;;;;;477.40;337.42;;;;;;;;;;5057676;28;20109;-83
2022/04/02 06:37:50;;;;;;;458.65;324.92;;;;;;;;;;5072925;28;20379;-82
2022/04/02 06:40:16;;;;;;;457.00;319.95;;;;;;;;;;5056724;28;20095;-83
2022/04/02 06:42:41;;;;;;;442.95;301.05;;;;;;;;;;5073983;28;20032;-82
2022/04/02 06:45:07;;;;;;;435.58;299.67;;;;;;;;;;5057306;28;20116;-82
2022/04/02 06:47:33;;;;;;;429.83;298.25;;;;;;;;;;5057203;28;20118;-83
2022/04/02 06:50:00;;;;;;;410.42;284.83;;;;;;;;;;5057007;28;20123;-83
2022/04/02 06:52:25;;;;;;;399.70;272.08;;;;;;;;;;5058841;28;20040;-82
2022/04/02 06:54:51;;;;;;;380.13;259.80;;;;;;;;;;5059770;28;20042;-82
2022/04/02 06:57:20;;;;;;;374.10;252.55;;;;;;;;;;5076887;28;20453;-82
2022/04/02 06:59:45;;;;;;;353.50;245.25;;;;;;;;;;5057172;28;20410;-82
2022/04/02 07:02:10;;;;;;;352.95;239.50;;;;;;;;;;5073855;28;20039;-82
2022/04/02 07:04:36;;;;;;;335.25;231.63;;;;;;;;;;5073731;28;20485;-82
2022/04/02 07:07:01;;;;;;;314.00;217.18;;;;;;;;;;5072909;28;20040;-82
2022/04/02 07:09:27;;;;;;;297.85;206.30;;;;;;;;;;5056868;28;20047;-82
2022/04/02 07:11:52;;;;;;;286.23;194.50;;;;;;;;;;5073671;28;20139;-82
2022/04/02 07:14:18;;;;;;;274.15;194.63;;;;;;;;;;5078548;28;20513;-82
2022/04/02 07:16:43;;;;;;;275.38;190.13;;;;;;;;;;5073898;28;20409;-82
2022/04/02 07:19:09;;;;;;;269.23;182.77;;;;;;;;;;5040482;28;20047;-82
2022/04/02 07:21:35;;;;;;;280.77;193.57;;;;;;;;;;5040421;28;20028;-82
2022/04/02 07:24:01;;;;;;;254.32;175.05;;;;;;;;;;5048023;28;20028;-82
2022/04/02 07:26:26;;;;;;;249.50;169.20;;;;;;;;;;5056179;28;20445;-82
2022/04/02 07:28:52;;;;;;;246.75;166.75;;;;;;;;;;5057017;28;20040;-82
2022/04/02 07:31:17;;;;;;;244.93;165.85;;;;;;;;;;5073532;28;20169;-83
2022/04/02 07:33:43;;;;;;;231.98;159.15;;;;;;;;;;5056725;28;20028;-83
2022/04/02 07:36:46;;;;;;;226.65;154.38;;;;;;;;;;5073430;28;20036;-82
2022/04/02 07:39:22;;;;;;;218.20;150.35;;;;;;;;;;5073350;28;20066;-82
2022/04/02 07:42:12;;;;;;;213.65;145.60;;;;;;;;;;5074445;28;20036;-82
2022/04/02 07:44:53;;;;;;;200.80;138.00;;;;;;;;;;5090137;28;20044;-82
2022/04/02 07:47:21;;;;;;;196.43;136.27;;;;;;;;;;5090372;28;20032;-82
2022/04/02 07:49:47;;;;;;;191.40;134.23;;;;;;;;;;5073499;28;20036;-82
2022/04/02 07:52:12;;;;;;;183.77;127.38;;;;;;;;;;5056697;28;20040;-82
2022/04/02 07:54:41;;;;;;;177.40;124.07;;;;;;;;;;5072813;28;20077;-83
2022/04/02 07:57:07;;;;;;;170.52;120.55;;;;;;;;;;5043999;28;20031;-83
2022/04/02 07:59:38;;;;;;;169.15;116.95;;;;;;;;;;5059714;28;20421;-83
2022/04/02 08:02:04;;;;;;;178.70;121.32;;;;;;;;;;5060706;28;20105;-83
2022/04/02 08:04:29;;;;;;;199.90;141.77;;;;;;;;;;5077221;28;20043;-85
2022/04/02 08:06:55;;;;;;;173.10;125.30;;;;;;;;;;5077038;28;20034;-83
2022/04/02 08:09:20;;;;;;;170.25;121.75;;;;;;;;;;5093234;28;20422;-85
2022/04/02 08:11:48;;;;;;;162.27;116.03;;;;;;;;;;5093462;28;20118;-85
2022/04/02 08:14:13;;;;;;;163.13;115.70;;;;;;;;;;5069146;28;20035;-86
2022/04/02 08:16:43;;;;;;;169.40;118.43;;;;;;;;;;5040229;28;20034;-86
2022/04/02 08:19:08;;;;;;;538.35;459.05;;;;;;;;;;5062807;28;20042;-87
2022/04/02 08:21:34;;;;;;;504.45;416.10;;;;;;;;;;5063957;28;20404;-88
2022/04/02 08:24:01;;;;;;;589.95;456.13;;;;;;;;;;5077017;28;20028;-84
2022/04/02 08:26:56;;;;;;;575.25;446.27;;;;;;;;;;5077072;28;20595;-87
2022/04/02 08:29:40;;;;;;;634.35;487.65;;;;;;;;;;5094247;28;20040;-88
2022/04/02 08:32:19;;;;;;;673.92;503.63;;;;;;;;;;5076972;28;20122;-86
2022/04/02 08:35:07;;;;;;;668.15;497.95;;;;;;;;;;5098845;28;20097;-86
2022/04/02 08:37:51;;;;;;;648.03;486.30;;;;;;;;;;5114053;28;20111;-86
2022/04/02 08:40:41;;;;;;;623.92;475.40;;;;;;;;;;5093535;28;20079;-86
2022/04/02 08:43:25;;;;;;;614.15;467.65;;;;;;;;;;5076259;28;20414;-84
2022/04/02 08:45:58;;;;;;;598.13;454.60;;;;;;;;;;5098617;28;20457;-84
2022/04/02 08:48:29;;;;;;;580.55;437.95;;;;;;;;;;5079848;28;20375;-85
2022/04/02 08:51:16;;;;;;;569.78;433.00;;;;;;;;;;5061651;28;20054;-84
2022/04/02 08:53:52;;;;;;;551.03;417.23;;;;;;;;;;5081497;28;20028;-83
2022/04/02 08:56:21;;;;;;;549.58;412.58;;;;;;;;;;5079463;28;20044;-84
2022/04/02 08:59:09;;;;;;;535.97;403.52;;;;;;;;;;5079982;28;20114;-84
2022/04/02 09:01:38;;;;;;;517.20;386.60;;;;;;;;;;5081340;28;20546;-83
2022/04/02 09:04:30;;;;;;;501.05;375.23;;;;;;;;;;5096323;28;20031;-83
2022/04/02 09:06:57;;;;;;;497.25;367.10;;;;;;;;;;5097535;28;20035;-84
2022/04/02 09:09:49;;;;;;;512.67;384.98;;;;;;;;;;5113078;28;20050;-83
2022/04/02 09:12:34;;;;;;;495.65;373.25;;;;;;;;;;5113492;28;20040;-83
2022/04/02 09:15:17;;;;;;;482.33;361.30;;;;;;;;;;5092480;28;20118;-83
2022/04/02 09:17:56;;;;;;;481.83;355.40;;;;;;;;;;5075537;28;20043;-83
2022/04/02 09:20:38;;;;;;;470.77;352.40;;;;;;;;;;5075613;28;20486;-83
2022/04/02 09:23:07;;;;;;;465.85;348.10;;;;;;;;;;5062354;28;20027;-82
2022/04/02 09:25:38;;;;;;;447.73;332.27;;;;;;;;;;5113799;28;20130;-82
2022/04/02 09:28:30;;;;;;;445.05;332.13;;;;;;;;;;5113009;28;20051;-82
2022/04/02 09:31:18;;;;;;;445.75;329.30;;;;;;;;;;5080775;28;20031;-82
2022/04/02 09:34:20;;;;;;;437.20;324.70;;;;;;;;;;5112516;28;20383;-82
2022/04/02 09:37:08;;;;;;;;;;;;;;;;;;5096087;28;20541;-82
2022/04/02 09:39:54;;;;;;;421.15;316.67;;;;;;;;;;5112718;28;19943;-82
2022/04/02 09:42:34;;;;;;;421.42;319.35;;;;;;;;;;5095707;28;20046;-81
2022/04/02 09:45:04;;;;;;;404.85;304.95;;;;;;;;;;5079060;28;20409;-81
2022/04/02 09:47:48;;;;;;;403.42;298.17;;;;;;;;;;5092156;28;20071;-81
2022/04/02 09:50:15;;;;;;;390.52;291.67;;;;;;;;;;5107744;28;20050;-81
2022/04/02 09:52:45;;;;;;;379.27;281.30;;;;;;;;;;5078982;28;20106;-81
2022/04/02 09:55:23;;;;;;;371.45;278.17;;;;;;;;;;5094614;28;20448;-81
2022/04/02 09:58:30;;;;;;;366.13;276.17;;;;;;;;;;5078499;28;20028;-81
2022/04/02 10:01:05;;;;;;;347.38;262.88;;;;;;;;;;5111846;28;20081;-81
2022/04/02 10:03:34;;;;;;;334.63;250.57;;;;;;;;;;5078102;28;20500;-81
2022/04/02 10:06:23;;;;;;;333.95;249.25;;;;;;;;;;5112043;28;20108;-80
2022/04/02 10:09:09;;;;;;;319.67;243.15;;;;;;;;;;5058659;28;20421;-80
2022/04/02 10:11:41;;;;;;;305.48;235.80;;;;;;;;;;5074079;28;20047;-81
2022/04/02 10:14:07;;;;;;;305.92;231.70;;;;;;;;;;5077942;28;20027;-81
2022/04/02 10:16:32;;;;;;;296.60;222.32;;;;;;;;;;5111791;28;20413;-81
2022/04/02 10:18:59;;;;;;;286.80;215.80;;;;;;;;;;5060886;28;20161;-81
2022/04/02 10:21:25;;;;;;;279.20;203.30;;;;;;;;;;5078067;28;20027;-80
2022/04/02 10:23:52;;;;;;;273.75;210.38;;;;;;;;;;5060839;28;20043;-81
2022/04/02 10:26:21;;;;;;;257.98;197.25;;;;;;;;;;5061337;28;20080;-80
2022/04/02 10:28:56;;;;;;;258.52;191.40;;;;;;;;;;5094708;28;20092;-80
2022/04/02 10:31:35;;;;;;;247.93;184.35;;;;;;;;;;5094586;28;20032;-80
2022/04/02 10:34:11;;;;;;;242.60;178.38;;;;;;;;;;5111089;28;20040;-80
2022/04/02 10:36:50;;;;;;;240.55;175.90;;;;;;;;;;5095047;28;20442;-81
2022/04/02 10:39:16;;;;;;;225.07;164.68;;;;;;;;;;5077560;28;20075;-81
2022/04/02 10:41:43;;;;;;;218.68;161.85;;;;;;;;;;5094508;28;20032;-80
2022/04/02 10:44:35;;;;;;;213.75;154.57;;;;;;;;;;5060952;28;20051;-80
2022/04/02 10:47:02;;;;;;;215.60;153.05;;;;;;;;;;5105759;28;20040;-80
2022/04/02 10:49:32;;;;;;;209.88;153.25;;;;;;;;;;5077458;28;20120;-80
2022/04/02 10:51:58;;;;;;;202.38;147.00;;;;;;;;;;5061235;28;20075;-80
2022/04/02 10:54:27;;;;;;;200.43;145.80;;;;;;;;;;5093963;28;20116;-80
2022/04/02 10:56:52;;;;;;;193.68;140.05;;;;;;;;;;5077349;28;20031;-80
2022/04/02 10:59:19;;;;;;;184.20;133.93;;;;;;;;;;5073518;28;20055;-81
2022/04/02 11:01:45;;;;;;;183.57;134.30;;;;;;;;;;5057400;28;20044;-80
2022/04/02 11:04:20;;;;;;;178.00;129.25;;;;;;;;;;5057483;28;20060;-80
2022/04/02 11:06:49;;;;;;;169.85;125.32;;;;;;;;;;5090593;28;20070;-80
2022/04/02 11:09:40;;;;;;;165.95;124.65;;;;;;;;;;5040788;28;20474;-80
2022/04/02 11:12:15;;;;;;;162.48;117.65;;;;;;;;;;5058995;28;20047;-80
2022/04/02 11:14:44;;;;;;;161.77;116.15;;;;;;;;;;5056893;28;20042;-80
2022/04/02 11:17:29;;;;;;;150.02;110.20;;;;;;;;;;5073131;28;20119;-80
2022/04/02 11:20:12;;;;;;;155.63;109.60;;;;;;;;;;5090099;28;20452;-80
2022/04/02 11:22:59;;;;;;;173.52;126.90;;;;;;;;;;5041153;28;20464;-80
2022/04/02 11:25:34;;;;;;;167.93;121.28;;;;;;;;;;5090299;28;20555;-81
2022/04/02 11:28:16;;;;;;;490.92;396.45;;;;;;;;;;5090508;28;20110;-80
2022/04/02 11:30:51;;;;;;;406.95;318.73;;;;;;;;;;5073245;28;20044;-80
2022/04/02 11:33:20;;;;;;;365.95;277.63;;;;;;;;;;5074112;28;20025;-80
2022/04/02 11:35:52;;;;;;;332.90;261.80;;;;;;;;;;5091483;28;20068;-80
2022/04/02 11:38:32;;;;;;;317.42;251.75;;;;;;;;;;5090278;28;20040;-80
2022/04/02 11:41:02;;;;;;;305.15;236.98;;;;;;;;;;5090607;28;20040;-80
2022/04/02 11:43:32;;;;;;;292.00;224.52;;;;;;;;;;5073266;28;20034;-80
2022/04/02 11:45:59;;;;;;;266.27;214.63;;;;;;;;;;5056552;28;20044;-80
2022/04/02 11:48:24;;;;;;;265.70;210.20;;;;;;;;;;5090300;28;20032;-80
2022/04/02 11:50:50;;;;;;;259.55;208.98;;;;;;;;;;5073370;28;20044;-80
2022/04/02 11:53:16;;;;;;;248.55;198.15;;;;;;;;;;5079435;28;20035;-80
2022/04/02 11:55:41;;;;;;;244.25;186.48;;;;;;;;;;5076946;28;20550;-80
2022/04/02 11:58:08;;;;;;;246.57;190.25;;;;;;;;;;5089338;28;20039;-80
2022/04/02 12:00:38;;;;;;;235.48;179.80;;;;;;;;;;5093679;28;20036;-80
2022/04/02 12:03:06;;;;;;;218.32;167.02;;;;;;;;;;5043947;28;20250;-82
2022/04/02 12:05:44;;;;;;;216.43;166.32;;;;;;;;;;5061070;28;20089;-79
2022/04/02 12:08:10;;;;;;;207.23;161.38;;;;;;;;;;5044935;28;20131;-79
2022/04/02 12:10:56;;;;;;;205.98;157.85;;;;;;;;;;5084495;28;20127;-80
2022/04/02 12:13:21;;;;;;;195.52;150.25;;;;;;;;;;5093754;28;20536;-80
2022/04/02 12:16:01;;;;;;;189.40;141.52;;;;;;;;;;5096434;28;20559;-80
2022/04/02 12:18:27;;;;;;;178.98;132.38;;;;;;;;;;5097651;28;20378;-80
2022/04/02 12:20:54;;;;;;;173.27;134.48;;;;;;;;;;5097513;28;20047;-78
2022/04/02 12:23:19;;;;;;;166.75;127.60;;;;;;;;;;5090946;28;20039;-77
2022/04/02 12:25:59;;;;;;;162.05;124.30;;;;;;;;;;5080910;28;20101;-77
2022/04/02 12:28:25;;;;;;;170.15;130.75;;;;;;;;;;5077358;28;20032;-78
2022/04/02 12:30:52;;;;;;;166.10;124.40;;;;;;;;;;5058901;28;20466;-77
2022/04/02 12:33:19;;;;;;;157.70;123.65;;;;;;;;;;5094556;28;20028;-77
2022/04/02 12:36:09;;;;;;;215.45;153.93;;;;;;;;;;5097114;28;20039;-77
2022/04/02 12:38:36;;;;;;;272.42;194.77;;;;;;;;;;5096768;28;20035;-77
2022/04/02 12:41:02;;;;;;;242.55;174.95;;;;;;;;;;5079531;28;20499;-78
2022/04/02 12:43:29;;;;;;;221.23;161.85;;;;;;;;;;5096458;28;20043;-77
2022/04/02 12:45:55;;;;;;;214.68;151.02;;;;;;;;;;5095883;28;20055;-77
2022/04/02 12:48:21;;;;;;;204.05;152.20;;;;;;;;;;5077965;28;20028;-77
2022/04/02 12:50:55;;;;;;;194.75;137.88;;;;;;;;;;5112337;28;20156;-77
2022/04/02 12:53:34;;;;;;;184.75;134.15;;;;;;;;;;5078009;28;20047;-77
2022/04/02 12:56:10;;;;;;;186.20;135.32;;;;;;;;;;5094051;28;20036;-77
2022/04/02 12:58:37;;;;;;;172.15;127.55;;;;;;;;;;5061041;28;20381;-80
2022/04/02 13:01:28;;;;;;;173.75;122.60;;;;;;;;;;5078771;28;20118;-79
2022/04/02 13:04:09;;;;;;;162.35;119.43;;;;;;;;;;5107375;28;20028;-77
2022/04/02 13:06:56;;;;;;;152.57;114.07;;;;;;;;;;5091415;28;20027;-80
2022/04/02 13:09:30;;;;;;;150.23;110.90;;;;;;;;;;5112208;28;20481;-79
2022/04/02 13:11:57;;;;;;;150.48;112.75;;;;;;;;;;5075441;28;20039;-79
2022/04/02 13:14:29;;;;;;;153.38;105.10;;;;;;;;;;5072526;28;20031;-80
2022/04/02 13:16:55;;;;;;;145.23;103.57;;;;;;;;;;5109658;28;20035;-79
2022/04/02 13:22:14;;;;;;;135.90;95.32;;;;;;;;;;5098977;28;20060;-80
2022/04/02 13:24:58;;;;;;;126.93;90.82;;;;;;;;;;5056866;28;20077;-80
2022/04/02 13:27:27;;;;;;;119.30;87.70;;;;;;;;;;5065415;28;20109;-80
2022/04/02 13:30:07;;;;;;;119.40;87.70;;;;;;;;;;5091368;28;20047;-80
2022/04/02 13:32:48;;;;;;;122.38;85.18;;;;;;;;;;5091997;28;20039;-80
2022/04/02 13:35:36;;;;;;;116.45;83.55;;;;;;;;;;5092329;28;20043;-80
2022/04/02 13:38:22;;;;;;;117.72;77.53;;;;;;;;;;5075119;28;20533;-80
2022/04/02 13:40:50;;;;;;;106.25;77.65;;;;;;;;;;5092377;28;20044;-80
2022/04/02 13:43:37;;;;;;;100.82;73.15;;;;;;;;;;5100879;28;20054;-79
2022/04/02 13:46:06;;;;;;;95.55;70.55;;;;;;;;;;5092491;28;20040;-80
2022/04/02 13:48:54;;;;;;;104.85;70.82;;;;;;;;;;5091363;28;20136;-80
2022/04/02 13:51:19;;;;;;;97.90;69.63;;;;;;;;;;5091345;28;20040;-80
2022/04/02 13:53:46;;;;;;;96.07;71.30;;;;;;;;;;5091703;28;20526;-80
2022/04/02 13:56:16;;;;;;;91.25;65.78;;;;;;;;;;5076656;28;20501;-81
2022/04/02 13:58:43;;;;;;;89.60;66.30;;;;;;;;;;5078275;28;20390;-80
2022/04/02 14:01:14;;;;;;;87.00;65.97;;;;;;;;;;5078349;28;20044;-80
2022/04/02 14:03:40;;;;;;;83.88;61.10;;;;;;;;;;5078517;28;20043;-80
2022/04/02 14:06:06;;;;;;;83.43;59.25;;;;;;;;;;5061681;28;20205;-79
2022/04/02 14:08:35;;;;;;;82.45;55.65;;;;;;;;;;5078065;28;20031;-79
2022/04/02 14:11:06;;;;;;;70.35;53.88;;;;;;;;;;5061309;28;20076;-79
2022/04/02 14:13:31;;;;;;;73.85;53.33;;;;;;;;;;5076953;28;20490;-79
2022/04/02 14:16:04;;;;;;;70.65;48.85;;;;;;;;;;5073973;28;20043;-80
2022/04/02 14:18:32;;;;;;;73.63;51.42;;;;;;;;;;5058285;28;20028;-80
2022/04/02 14:21:02;;;;;;;116.70;82.22;;;;;;;;;;5074365;28;20529;-80
2022/04/02 14:23:44;;;;;;;123.25;82.32;;;;;;;;;;5071739;28;20107;-79
2022/04/02 14:26:31;;;;;;;109.63;72.43;;;;;;;;;;5074231;28;20036;-79
2022/04/02 14:29:09;;;;;;;119.75;84.60;;;;;;;;;;5091451;28;20032;-79
2022/04/02 14:31:53;;;;;;;108.43;74.68;;;;;;;;;;5074349;28;20051;-80
2022/04/02 14:34:56;;;;;;;100.65;71.25;;;;;;;;;;5091456;28;20585;-80
2022/04/02 14:37:37;;;;;;;92.50;65.20;;;;;;;;;;5091153;28;20070;-78
2022/04/02 14:40:11;;;;;;;101.15;65.53;;;;;;;;;;5106714;28;20039;-77
2022/04/02 14:42:58;;;;;;;95.82;64.65;;;;;;;;;;5077751;28;20067;-80
2022/04/02 14:45:41;;;;;;;88.55;60.20;;;;;;;;;;5111072;28;20042;-80